Time;durP1;ratioP1;P1;durP2;ratioP2;P2;SDS_P1;SDS_P2;PMS_P1;PMS_P2;Temp;Humidity;BMP_temperature;BMP_pressure;BME280_temperature;BME280_humidity;BME280_pressure;Samples;Min_cycle;Max_cycle;Signal;HPM_P1;HPM_P2
2024/04/15 00:01:42;;;;;;;5.40;2.07;;;;;;;;;;6142271;23;20402;-86
2024/04/15 00:04:10;;;;;;;5.23;2.20;;;;;;;;;;6166836;23;20422;-86
2024/04/15 00:06:37;;;;;;;5.43;2.47;;;;;;;;;;6141417;23;20796;-86
2024/04/15 00:09:06;;;;;;;5.63;2.50;;;;;;;;;;6143675;23;20402;-86
2024/04/15 00:11:32;;;;;;;3.10;2.57;;;;;;;;;;6145512;23;20402;-87
2024/04/15 00:14:07;;;;;;;5.93;2.50;;;;;;;;;;6147710;23;20557;-85
2024/04/15 00:16:36;;;;;;;4.13;2.40;;;;;;;;;;6170478;23;20406;-85
2024/04/15 00:19:09;;;;;;;5.07;2.90;;;;;;;;;;6148427;23;20406;-87
2024/04/15 00:21:38;;;;;;;3.23;2.50;;;;;;;;;;6148725;23;20395;-85
2024/04/15 00:24:07;;;;;;;8.07;3.13;;;;;;;;;;6148424;23;20452;-86
2024/04/15 00:26:46;;;;;;;;;;;;;;;;;;;;;
2024/04/15 00:29:13;;;;;;;3.20;2.67;;;;;;;;;;6175099;23;20406;-86
2024/04/15 00:31:42;;;;;;;4.97;2.87;;;;;;;;;;6157278;23;20426;-88
2024/04/15 00:34:11;;;;;;;5.73;2.13;;;;;;;;;;6179206;23;20426;-87
2024/04/15 00:36:42;;;;;;;6.50;2.67;;;;;;;;;;6152535;23;20402;-87
2024/04/15 00:39:09;;;;;;;3.23;2.50;;;;;;;;;;6178947;23;20463;-87
2024/04/15 00:41:38;;;;;;;4.23;2.50;;;;;;;;;;6180730;23;20410;-89
2024/04/15 00:44:04;;;;;;;4.60;3.00;;;;;;;;;;6179246;23;20472;-89
2024/04/15 00:46:31;;;;;;;5.40;3.70;;;;;;;;;;6146957;23;20416;-87
2024/04/15 00:48:58;;;;;;;3.50;2.43;;;;;;;;;;6142768;23;20489;-88
2024/04/15 00:51:24;;;;;;;3.20;2.60;;;;;;;;;;6140075;23;20412;-88
2024/04/15 00:53:54;;;;;;;3.47;2.37;;;;;;;;;;6140641;23;20444;-86
2024/04/15 00:56:24;;;;;;;4.03;2.90;;;;;;;;;;6172437;23;20414;-87
2024/04/15 00:58:56;;;;;;;4.83;3.17;;;;;;;;;;6152369;23;20501;-87
2024/04/15 01:01:23;;;;;;;6.00;2.97;;;;;;;;;;6143761;23;20406;-88
2024/04/15 01:03:51;;;;;;;5.33;3.10;;;;;;;;;;6141242;23;20421;-86
2024/04/15 01:06:26;;;;;;;4.07;3.20;;;;;;;;;;6149647;23;20417;-86
2024/04/15 01:08:57;;;;;;;3.10;2.80;;;;;;;;;;6141408;23;20432;-87
2024/04/15 01:11:26;;;;;;;4.23;3.00;;;;;;;;;;6166874;23;20394;-87
2024/04/15 01:14:01;;;;;;;4.60;3.37;;;;;;;;;;6142713;23;20459;-86
2024/04/15 01:16:41;;;;;;;4.80;3.00;;;;;;;;;;6156003;23;20398;-87
2024/04/15 01:19:20;;;;;;;6.03;3.57;;;;;;;;;;6161201;23;20469;-86
2024/04/15 01:21:46;;;;;;;9.03;3.40;;;;;;;;;;6149020;23;20443;-85
2024/04/15 01:24:21;;;;;;;5.40;3.50;;;;;;;;;;6140723;23;20422;-85
2024/04/15 01:26:48;;;;;;;7.20;2.90;;;;;;;;;;6141123;23;20413;-86
2024/04/15 01:29:17;;;;;;;5.67;3.40;;;;;;;;;;6146171;23;20406;-85
2024/04/15 01:31:46;;;;;;;4.07;3.67;;;;;;;;;;6174881;23;20441;-85
2024/04/15 01:34:15;;;;;;;4.57;3.70;;;;;;;;;;6174108;23;20422;-86
2024/04/15 01:36:41;;;;;;;6.37;3.20;;;;;;;;;;6167430;23;20402;-86
2024/04/15 01:39:11;;;;;;;4.23;3.30;;;;;;;;;;6165125;23;20399;-85
2024/04/15 01:41:41;;;;;;;8.93;3.83;;;;;;;;;;6142001;23;20404;-85
2024/04/15 01:44:08;;;;;;;4.40;4.10;;;;;;;;;;6141677;23;20425;-85
2024/04/15 01:46:37;;;;;;;4.63;4.13;;;;;;;;;;6142655;23;20464;-86
2024/04/15 01:49:19;;;;;;;8.33;4.50;;;;;;;;;;6141779;23;20415;-86
2024/04/15 01:51:45;;;;;;;5.10;4.17;;;;;;;;;;6164703;23;20775;-86
2024/04/15 01:54:15;;;;;;;5.13;4.40;;;;;;;;;;6162854;23;20428;-85
2024/04/15 01:56:44;;;;;;;4.43;4.00;;;;;;;;;;6165310;23;20408;-86
2024/04/15 01:59:22;;;;;;;7.57;4.03;;;;;;;;;;6141273;23;20911;-89
2024/04/15 02:01:48;;;;;;;6.83;4.77;;;;;;;;;;6139258;23;20395;-85
2024/04/15 02:04:14;;;;;;;5.63;4.70;;;;;;;;;;6161494;23;20426;-85
2024/04/15 02:06:41;;;;;;;6.20;4.30;;;;;;;;;;6139101;23;20412;-86
2024/04/15 02:09:07;;;;;;;6.23;4.63;;;;;;;;;;6138975;23;20402;-87
2024/04/15 02:11:45;;;;;;;9.00;4.90;;;;;;;;;;6139324;23;20421;-86
2024/04/15 02:14:12;;;;;;;6.77;5.20;;;;;;;;;;6164068;23;20428;-87
2024/04/15 02:16:41;;;;;;;6.77;5.10;;;;;;;;;;6139438;23;20398;-86
2024/04/15 02:19:10;;;;;;;6.53;5.37;;;;;;;;;;6163498;23;20398;-86
2024/04/15 02:21:36;;;;;;;5.73;5.23;;;;;;;;;;6137775;23;20398;-87
2024/04/15 02:24:13;;;;;;;5.30;4.83;;;;;;;;;;6143231;23;20834;-85
2024/04/15 02:26:42;;;;;;;7.80;5.10;;;;;;;;;;6167330;23;20452;-86
2024/04/15 02:29:11;;;;;;;5.93;5.33;;;;;;;;;;6171101;23;20398;-86
2024/04/15 02:31:47;;;;;;;6.03;5.50;;;;;;;;;;6161975;23;20508;-84
2024/04/15 02:34:17;;;;;;;6.80;5.40;;;;;;;;;;6187103;23;20488;-85
2024/04/15 02:36:43;;;;;;;6.93;5.47;;;;;;;;;;6162977;23;20457;-82
2024/04/15 02:39:14;;;;;;;6.70;5.73;;;;;;;;;;6187626;23;20478;-86
2024/04/15 02:41:41;;;;;;;9.90;6.60;;;;;;;;;;6188535;23;20478;-84
2024/04/15 02:44:08;;;;;;;10.50;6.90;;;;;;;;;;6163905;23;20481;-87
2024/04/15 02:46:34;;;;;;;10.53;6.40;;;;;;;;;;6162456;23;20446;-86
2024/04/15 02:49:01;;;;;;;8.37;6.47;;;;;;;;;;6162724;23;20477;-87
2024/04/15 02:51:31;;;;;;;10.10;6.33;;;;;;;;;;6188451;23;20461;-87
2024/04/15 02:54:00;;;;;;;8.60;6.60;;;;;;;;;;6187342;23;20482;-86
2024/04/15 02:56:44;;;;;;;7.77;6.53;;;;;;;;;;6163761;23;20461;-87
2024/04/15 02:59:19;;;;;;;7.40;5.87;;;;;;;;;;6158966;23;20447;-87
2024/04/15 03:01:46;;;;;;;7.93;5.93;;;;;;;;;;6184947;23;20453;-87
2024/04/15 03:04:15;;;;;;;7.00;5.30;;;;;;;;;;6184941;23;20482;-85
2024/04/15 03:06:44;;;;;;;9.43;5.83;;;;;;;;;;6187448;23;21109;-87
2024/04/15 03:09:12;;;;;;;6.77;5.20;;;;;;;;;;6162631;23;20477;-87
2024/04/15 03:11:44;;;;;;;6.40;4.67;;;;;;;;;;6161063;23;20469;-85
2024/04/15 03:14:13;;;;;;;6.50;4.73;;;;;;;;;;6161158;23;20497;-87
2024/04/15 03:16:45;;;;;;;5.37;4.70;;;;;;;;;;6162834;23;20477;-85
2024/04/15 03:19:24;;;;;;;4.70;4.30;;;;;;;;;;6159878;23;20465;-86
2024/04/15 03:21:50;;;;;;;6.20;5.07;;;;;;;;;;6161986;23;20495;-87
2024/04/15 03:24:19;;;;;;;5.83;4.27;;;;;;;;;;6161078;23;20477;-85
2024/04/15 03:26:50;;;;;;;4.83;4.30;;;;;;;;;;6185717;23;20453;-87
2024/04/15 03:29:17;;;;;;;6.70;4.00;;;;;;;;;;6182829;23;20481;-85
2024/04/15 03:31:46;;;;;;;8.00;4.67;;;;;;;;;;6156330;23;20410;-88
2024/04/15 03:34:15;;;;;;;6.03;4.20;;;;;;;;;;6156800;23;20529;-85
2024/04/15 03:36:42;;;;;;;3.83;3.30;;;;;;;;;;6145322;23;20406;-84
2024/04/15 03:39:16;;;;;;;4.30;3.90;;;;;;;;;;6146941;23;20402;-86
2024/04/15 03:41:42;;;;;;;5.63;4.13;;;;;;;;;;6166726;23;20406;-87
2024/04/15 03:44:14;;;;;;;4.43;3.33;;;;;;;;;;6148414;23;20430;-88
2024/04/15 03:46:46;;;;;;;4.67;3.63;;;;;;;;;;6153163;23;20410;-86
2024/04/15 03:49:15;;;;;;;3.90;3.43;;;;;;;;;;6158902;23;20461;-86
2024/04/15 03:51:42;;;;;;;5.90;4.23;;;;;;;;;;6156342;23;20496;-85
2024/04/15 03:54:12;;;;;;;7.47;3.77;;;;;;;;;;6149936;23;20977;-85
2024/04/15 03:56:41;;;;;;;5.03;3.53;;;;;;;;;;6148718;23;20403;-87
2024/04/15 03:59:10;;;;;;;6.03;3.90;;;;;;;;;;6144192;23;20398;-85
2024/04/15 04:01:40;;;;;;;4.53;3.27;;;;;;;;;;6175860;23;20402;-84
2024/04/15 04:04:12;;;;;;;4.13;3.33;;;;;;;;;;6185101;23;20477;-86
2024/04/15 04:06:46;;;;;;;4.57;3.70;;;;;;;;;;6162467;23;20477;-85
2024/04/15 04:09:13;;;;;;;3.70;3.17;;;;;;;;;;6159508;23;20472;-86
2024/04/15 04:11:57;;;;;;;4.00;3.70;;;;;;;;;;6162668;23;20453;-87
2024/04/15 04:14:28;;;;;;;5.90;4.00;;;;;;;;;;6162446;23;20481;-88
2024/04/15 04:17:24;;;;;;;4.10;3.70;;;;;;;;;;6160193;23;20446;-87
2024/04/15 04:19:54;;;;;;;5.27;4.20;;;;;;;;;;6172219;23;20983;-85
2024/04/15 04:25:08;;;;;;;5.77;3.47;;;;;;;;;;6171938;23;20438;-87
2024/04/15 04:27:39;;;;;;;6.10;3.23;;;;;;;;;;6149841;23;20387;-88
2024/04/15 04:30:16;;;;;;;4.93;3.40;;;;;;;;;;6148482;23;20422;-86
2024/04/15 04:32:45;;;;;;;10.17;5.10;;;;;;;;;;6120494;23;20455;-85
2024/04/15 04:35:12;;;;;;;8.53;4.60;;;;;;;;;;6119905;23;20437;-86
2024/04/15 04:37:48;;;;;;;5.40;3.10;;;;;;;;;;6123833;23;20407;-87
2024/04/15 04:40:17;;;;;;;4.17;3.60;;;;;;;;;;6121507;23;20398;-85
2024/04/15 04:42:44;;;;;;;6.03;3.73;;;;;;;;;;6122100;23;20415;-85
2024/04/15 04:45:10;;;;;;;4.93;3.20;;;;;;;;;;6120283;23;20430;-86
2024/04/15 04:47:37;;;;;;;3.87;3.47;;;;;;;;;;6144541;23;20411;-86
2024/04/15 04:50:10;;;;;;;4.40;3.17;;;;;;;;;;6115789;23;20414;-87
2024/04/15 04:52:54;;;;;;;7.43;4.03;;;;;;;;;;6119682;23;20456;-86
2024/04/15 04:55:25;;;;;;;7.10;3.20;;;;;;;;;;6120882;23;20399;-85
2024/04/15 04:58:03;;;;;;;3.30;2.83;;;;;;;;;;6113755;23;20401;-84
2024/04/15 05:00:57;;;;;;;3.63;3.33;;;;;;;;;;6172608;23;20394;-85
2024/04/15 05:03:34;;;;;;;4.53;3.40;;;;;;;;;;6145573;23;20426;-86
2024/04/15 05:06:04;;;;;;;4.50;3.40;;;;;;;;;;6120599;23;20403;-86
2024/04/15 05:14:07;;;;;;;4.73;3.60;;;;;;;;;;6148185;23;20444;-85
2024/04/15 05:16:39;;;;;;;4.50;3.57;;;;;;;;;;6116870;23;20407;-86
2024/04/15 05:19:14;;;;;;;4.57;3.10;;;;;;;;;;6113302;23;20400;-86
2024/04/15 05:21:41;;;;;;;3.50;3.13;;;;;;;;;;6089293;23;20391;-85
2024/04/15 05:24:17;;;;;;;6.60;3.93;;;;;;;;;;6090914;23;20451;-86
2024/04/15 05:27:05;;;;;;;4.47;3.00;;;;;;;;;;6113744;23;20388;-86
2024/04/15 05:29:35;;;;;;;7.50;2.83;;;;;;;;;;6092834;23;20406;-85
2024/04/15 05:32:02;;;;;;;6.67;2.90;;;;;;;;;;6097700;23;20450;-87
2024/04/15 05:34:36;;;;;;;6.83;3.10;;;;;;;;;;6121330;23;20403;-87
2024/04/15 05:37:08;;;;;;;3.90;2.83;;;;;;;;;;6119996;23;20403;-87
2024/04/15 05:39:37;;;;;;;7.77;3.00;;;;;;;;;;6117695;23;20443;-86
2024/04/15 05:42:05;;;;;;;8.47;3.33;;;;;;;;;;6094385;23;20408;-86
2024/04/15 05:44:38;;;;;;;5.40;2.80;;;;;;;;;;6115294;23;20428;-87
2024/04/15 05:47:12;;;;;;;5.63;2.90;;;;;;;;;;6114461;23;20458;-84
2024/04/15 05:49:41;;;;;;;2.70;2.30;;;;;;;;;;6089225;23;20403;-87
2024/04/15 05:52:15;;;;;;;3.33;2.60;;;;;;;;;;6089162;23;20446;-87
2024/04/15 05:54:47;;;;;;;5.20;3.30;;;;;;;;;;6084305;23;20418;-87
2024/04/15 05:57:16;;;;;;;3.80;3.30;;;;;;;;;;6113955;23;20439;-86
2024/04/15 05:59:48;;;;;;;5.93;2.57;;;;;;;;;;6089387;23;20414;-86
2024/04/15 06:02:18;;;;;;;2.90;2.30;;;;;;;;;;6065431;23;20408;-86
2024/04/15 06:07:50;;;;;;;3.97;2.17;;;;;;;;;;6102699;23;20412;-86
2024/04/15 06:10:20;;;;;;;4.83;2.67;;;;;;;;;;6090138;23;20414;-88
2024/04/15 06:12:59;;;;;;;4.60;2.50;;;;;;;;;;6088975;23;20451;-86
2024/04/15 06:15:37;;;;;;;2.40;1.90;;;;;;;;;;6093329;23;20430;-87
2024/04/15 06:18:06;;;;;;;2.00;1.80;;;;;;;;;;6091548;23;20438;-88
2024/04/15 06:20:38;;;;;;;5.33;2.33;;;;;;;;;;6092189;23;20418;-86
2024/04/15 06:23:08;;;;;;;3.50;1.80;;;;;;;;;;6091349;23;20550;-87
2024/04/15 06:25:52;;;;;;;3.57;2.37;;;;;;;;;;6092617;23;20408;-87
2024/04/15 06:28:21;;;;;;;3.53;1.97;;;;;;;;;;6088516;23;20505;-88
2024/04/15 06:30:50;;;;;;;5.03;2.37;;;;;;;;;;6090262;23;20477;-87
2024/04/15 06:33:19;;;;;;;2.60;1.80;;;;;;;;;;6090848;23;20443;-87
2024/04/15 06:35:54;;;;;;;2.83;1.90;;;;;;;;;;6113915;23;20400;-86
2024/04/15 06:38:27;;;;;;;7.37;1.80;;;;;;;;;;6091168;23;20404;-87
2024/04/15 06:40:53;;;;;;;6.93;2.17;;;;;;;;;;6092898;23;20403;-84
2024/04/15 06:43:30;;;;;;;3.80;1.50;;;;;;;;;;6098734;23;20423;-86
2024/04/15 06:46:03;;;;;;;4.90;1.80;;;;;;;;;;6092587;23;20404;-86
2024/04/15 06:48:46;;;;;;;4.80;2.13;;;;;;;;;;6095449;23;20876;-87
2024/04/15 06:51:15;;;;;;;2.37;1.57;;;;;;;;;;6119235;23;20412;-86
2024/04/15 06:53:53;;;;;;;3.33;1.77;;;;;;;;;;6103647;23;20531;-87
2024/04/15 06:56:21;;;;;;;4.23;1.60;;;;;;;;;;6126938;23;20452;-86
2024/04/15 06:58:53;;;;;;;4.10;1.97;;;;;;;;;;6131307;23;20457;-85
2024/04/15 07:01:19;;;;;;;4.83;1.83;;;;;;;;;;6172922;23;20400;-85
2024/04/15 07:03:54;;;;;;;4.27;2.60;;;;;;;;;;6166418;23;20732;-86
2024/04/15 07:06:22;;;;;;;5.50;2.20;;;;;;;;;;6121097;23;20403;-85
2024/04/15 07:08:51;;;;;;;6.80;1.73;;;;;;;;;;6119744;23;20927;-84
2024/04/15 07:11:18;;;;;;;2.77;1.93;;;;;;;;;;6118812;23;20877;-86
2024/04/15 07:13:48;;;;;;;3.63;1.60;;;;;;;;;;6118139;23;20516;-87
2024/04/15 07:16:15;;;;;;;7.83;2.93;;;;;;;;;;6117400;23;20398;-86
2024/04/15 07:18:43;;;;;;;2.70;1.87;;;;;;;;;;6117689;23;20407;-86
2024/04/15 07:21:20;;;;;;;2.90;1.47;;;;;;;;;;6120704;23;20467;-84
2024/04/15 07:23:55;;;;;;;3.50;1.83;;;;;;;;;;6143955;23;20434;-86
2024/04/15 07:26:22;;;;;;;1.73;1.30;;;;;;;;;;6119427;23;20410;-86
2024/04/15 07:28:59;;;;;;;4.50;2.63;;;;;;;;;;6117572;23;20414;-86
2024/04/15 07:31:49;;;;;;;6.53;2.20;;;;;;;;;;6118093;23;20411;-85
2024/04/15 07:34:36;;;;;;;3.67;1.77;;;;;;;;;;6119122;23;20427;-87
2024/04/15 07:37:11;;;;;;;2.60;1.30;;;;;;;;;;6118298;23;20410;-86
2024/04/15 07:39:42;;;;;;;3.53;1.40;;;;;;;;;;6139704;23;20395;-86
2024/04/15 07:42:16;;;;;;;2.60;1.60;;;;;;;;;;6118929;23;20403;-87
2024/04/15 07:44:49;;;;;;;9.87;2.80;;;;;;;;;;6117658;23;20401;-87
2024/04/15 07:47:16;;;;;;;2.23;1.87;;;;;;;;;;6118658;23;20395;-86
2024/04/15 07:49:46;;;;;;;3.30;1.70;;;;;;;;;;6124549;23;20402;-85
2024/04/15 07:52:18;;;;;;;5.80;1.90;;;;;;;;;;6131809;23;20502;-89
2024/04/15 07:55:02;;;;;;;4.03;1.97;;;;;;;;;;6131713;23;20498;-88
2024/04/15 07:57:36;;;;;;;4.67;2.07;;;;;;;;;;6154415;23;20478;-86
2024/04/15 08:00:09;;;;;;;6.13;2.13;;;;;;;;;;6134401;23;20483;-86
2024/04/15 08:02:36;;;;;;;2.80;1.47;;;;;;;;;;6169926;23;20411;-87
2024/04/15 08:05:10;;;;;;;4.50;1.40;;;;;;;;;;6123059;23;20426;-87
2024/04/15 08:07:51;;;;;;;3.57;1.80;;;;;;;;;;6122993;23;20395;-87
2024/04/15 08:10:34;;;;;;;2.00;1.60;;;;;;;;;;6119148;23;20408;-84
2024/04/15 08:13:37;;;;;;;4.10;1.40;;;;;;;;;;6128678;23;20518;-88
2024/04/15 08:16:12;;;;;;;4.50;1.80;;;;;;;;;;6139286;23;20399;-86
2024/04/15 08:19:05;;;;;;;3.13;1.37;;;;;;;;;;6117143;23;20413;-86
2024/04/15 08:21:49;;;;;;;;;;;;;;;;;;;;;
2024/04/15 08:24:47;;;;;;;;;;;;;;;;;;;;;
2024/04/15 08:27:24;;;;;;;4.10;2.23;;;;;;;;;;6142095;23;20415;-88
2024/04/15 08:29:52;;;;;;;3.30;1.33;;;;;;;;;;6166935;23;20387;-86
2024/04/15 08:32:26;;;;;;;5.07;1.40;;;;;;;;;;6113975;23;20458;-86
2024/04/15 08:34:57;;;;;;;4.70;1.40;;;;;;;;;;6142159;23;20413;-86
2024/04/15 08:37:36;;;;;;;2.47;1.50;;;;;;;;;;6121323;23;20411;-86
2024/04/15 08:40:12;;;;;;;6.13;2.40;;;;;;;;;;6141768;23;20411;-85
2024/04/15 08:42:49;;;;;;;5.73;2.40;;;;;;;;;;6124156;23;20419;-85
2024/04/15 08:45:27;;;;;;;5.30;1.60;;;;;;;;;;6145912;23;20423;-86
2024/04/15 08:47:56;;;;;;;2.13;1.50;;;;;;;;;;6129168;23;20469;-87
2024/04/15 08:50:24;;;;;;;3.10;1.47;;;;;;;;;;6130155;23;20446;-88
2024/04/15 08:52:51;;;;;;;3.63;1.20;;;;;;;;;;6131349;23;20522;-90
2024/04/15 08:55:21;;;;;;;3.20;1.43;;;;;;;;;;6131173;23;20454;-89
2024/04/15 09:01:20;;;;;;;4.23;1.70;;;;;;;;;;6181744;23;20425;-88
2024/04/15 09:03:54;;;;;;;3.20;1.30;;;;;;;;;;6133689;23;20474;-88
2024/04/15 09:06:30;;;;;;;3.53;1.60;;;;;;;;;;6129370;23;20473;-88
2024/04/15 09:09:00;;;;;;;5.23;1.60;;;;;;;;;;6132916;23;20446;-86
2024/04/15 09:11:36;;;;;;;2.10;1.70;;;;;;;;;;6114440;23;20897;-87
2024/04/15 09:14:22;;;;;;;3.10;2.03;;;;;;;;;;6184366;23;20485;-86
2024/04/15 09:17:11;;;;;;;4.40;1.87;;;;;;;;;;6161639;23;20481;-88
2024/04/15 09:20:09;;;;;;;3.30;1.50;;;;;;;;;;6162424;23;20462;-86
2024/04/15 09:22:54;;;;;;;4.00;2.07;;;;;;;;;;6160146;23;20502;-87
2024/04/15 09:25:32;;;;;;;4.07;1.60;;;;;;;;;;6146937;23;20406;-84
2024/04/15 09:28:09;;;;;;;1.23;0.97;;;;;;;;;;6144172;23;20406;-86
2024/04/15 09:30:39;;;;;;;3.97;1.50;;;;;;;;;;6170841;23;20409;-85
2024/04/15 09:33:17;;;;;;;2.80;1.80;;;;;;;;;;6143618;23;20454;-85
2024/04/15 09:35:50;;;;;;;4.40;1.80;;;;;;;;;;6162726;23;20402;-85
2024/04/15 09:38:20;;;;;;;6.00;1.80;;;;;;;;;;6138535;23;20404;-84
2024/04/15 09:41:02;;;;;;;4.47;1.60;;;;;;;;;;6160018;23;20474;-88
2024/04/15 09:43:39;;;;;;;2.53;1.60;;;;;;;;;;6137006;23;20441;-86
2024/04/15 09:46:11;;;;;;;4.00;1.90;;;;;;;;;;6122076;23;20514;-87
2024/04/15 09:48:39;;;;;;;4.83;1.43;;;;;;;;;;6169622;23;20451;-84
2024/04/15 09:51:19;;;;;;;3.27;1.50;;;;;;;;;;6165913;23;20459;-86
2024/04/15 09:53:51;;;;;;;4.57;2.30;;;;;;;;;;6143226;23;20462;-86
2024/04/15 09:56:36;;;;;;;3.77;1.60;;;;;;;;;;6123835;23;20415;-86
2024/04/15 09:59:15;;;;;;;5.10;1.93;;;;;;;;;;6161809;23;20983;-85
2024/04/15 10:01:50;;;;;;;2.60;1.50;;;;;;;;;;6134927;23;20413;-85
2024/04/15 10:04:21;;;;;;;4.80;1.97;;;;;;;;;;6153657;23;20430;-85
2024/04/15 10:06:56;;;;;;;4.40;1.57;;;;;;;;;;6159603;23;20407;-84
2024/04/15 10:09:30;;;;;;;5.50;1.93;;;;;;;;;;6129398;23;20411;-85
2024/04/15 10:12:08;;;;;;;2.50;1.27;;;;;;;;;;6132423;23;20411;-85
2024/04/15 10:14:52;;;;;;;3.80;1.60;;;;;;;;;;6163752;23;20404;-86
2024/04/15 10:17:25;;;;;;;4.03;1.80;;;;;;;;;;6154106;23;20399;-87
2024/04/15 10:19:59;;;;;;;2.87;1.40;;;;;;;;;;6132035;23;20414;-86
2024/04/15 10:22:34;;;;;;;3.37;1.77;;;;;;;;;;6150291;23;20426;-86
2024/04/15 10:25:10;;;;;;;4.83;1.17;;;;;;;;;;6132863;23;20975;-85
2024/04/15 10:27:47;;;;;;;3.40;1.10;;;;;;;;;;6156963;23;20411;-87
2024/04/15 10:30:27;;;;;;;2.57;1.30;;;;;;;;;;6146880;23;20573;-85
2024/04/15 10:33:07;;;;;;;4.23;1.23;;;;;;;;;;6134146;23;20446;-85
2024/04/15 10:35:40;;;;;;;7.40;1.50;;;;;;;;;;6130219;23;20791;-84
2024/04/15 10:38:22;;;;;;;2.07;1.20;;;;;;;;;;6144245;23;20403;-85
2024/04/15 10:43:56;;;;;;;4.80;1.20;;;;;;;;;;6166244;23;20422;-85
2024/04/15 10:46:27;;;;;;;2.90;1.53;;;;;;;;;;6154515;23;20411;-86
2024/04/15 10:48:55;;;;;;;4.50;1.20;;;;;;;;;;6163465;23;20399;-86
2024/04/15 10:51:31;;;;;;;2.40;1.27;;;;;;;;;;6127554;23;20399;-86
2024/04/15 10:54:28;;;;;;;3.20;2.20;;;;;;;;;;6138262;23;20457;-85
2024/04/15 10:57:07;;;;;;;4.87;1.60;;;;;;;;;;6136315;23;20971;-85
2024/04/15 10:59:45;;;;;;;2.03;0.90;;;;;;;;;;6134939;23;20404;-86
2024/04/15 11:02:37;;;;;;;2.43;1.37;;;;;;;;;;6139376;23;20880;-85
2024/04/15 11:05:24;;;;;;;3.70;1.37;;;;;;;;;;6136336;23;20403;-86
2024/04/15 11:07:51;;;;;;;3.13;1.10;;;;;;;;;;6161253;23;20404;-86
2024/04/15 11:10:21;;;;;;;2.30;1.10;;;;;;;;;;6131129;23;21304;-86
2024/04/15 11:13:09;;;;;;;2.63;1.20;;;;;;;;;;6167402;23;20502;-85
2024/04/15 11:16:03;;;;;;;3.97;1.30;;;;;;;;;;6160521;23;20411;-89
2024/04/15 11:19:11;;;;;;;1.67;1.50;;;;;;;;;;6089157;23;20403;-87
2024/04/15 11:22:10;;;;;;;3.40;1.30;;;;;;;;;;6139778;23;20399;-87
2024/04/15 11:24:51;;;;;;;3.13;1.40;;;;;;;;;;6128434;23;20407;-86
2024/04/15 11:28:02;;;;;;;2.37;1.60;;;;;;;;;;6145201;23;20399;-85
2024/04/15 11:34:25;;;;;;;4.50;1.10;;;;;;;;;;6171547;23;20429;-86
2024/04/15 11:37:44;;;;;;;3.27;1.30;;;;;;;;;;6057201;23;20431;-83
2024/04/15 11:40:35;;;;;;;2.23;0.80;;;;;;;;;;6009144;23;20422;-87
2024/04/15 11:43:18;;;;;;;2.17;1.30;;;;;;;;;;6039119;23;20755;-84
2024/04/15 11:46:15;;;;;;;2.13;1.30;;;;;;;;;;6121044;23;20478;-89
2024/04/15 11:52:42;;;;;;;1.30;0.90;;;;;;;;;;6171736;23;20525;-85
2024/04/15 11:55:48;;;;;;;3.27;1.20;;;;;;;;;;6120865;23;20402;-86
2024/04/15 11:58:55;;;;;;;2.10;0.80;;;;;;;;;;6076746;23;20405;-87
2024/04/15 12:01:27;;;;;;;5.77;0.97;;;;;;;;;;6175582;23;20467;-87
2024/04/15 12:04:00;;;;;;;1.77;0.80;;;;;;;;;;6152594;23;20506;-87
2024/04/15 12:06:34;;;;;;;2.27;1.50;;;;;;;;;;6146037;23;20466;-87
2024/04/15 12:09:03;;;;;;;1.93;1.00;;;;;;;;;;6152821;23;20491;-86
2024/04/15 12:11:34;;;;;;;1.63;0.80;;;;;;;;;;6177261;23;20486;-85
2024/04/15 12:14:31;;;;;;;3.50;1.03;;;;;;;;;;6151266;23;20457;-87
2024/04/15 12:17:07;;;;;;;2.83;0.87;;;;;;;;;;6175701;23;20478;-86
2024/04/15 12:19:44;;;;;;;2.40;1.00;;;;;;;;;;6171385;23;20403;-83
2024/04/15 12:22:13;;;;;;;7.60;1.27;;;;;;;;;;6145912;23;20403;-87
2024/04/15 12:24:43;;;;;;;1.43;0.90;;;;;;;;;;6170034;23;20407;-86
2024/04/15 12:27:20;;;;;;;3.83;1.20;;;;;;;;;;6165673;23;20398;-84
2024/04/15 12:29:59;;;;;;;;;;;;;;;;;;;;;
2024/04/15 12:32:31;;;;;;;2.43;1.10;;;;;;;;;;6168700;23;20434;-86
2024/04/15 12:34:57;;;;;;;2.60;1.30;;;;;;;;;;6171295;23;20470;-87
2024/04/15 12:37:33;;;;;;;2.17;0.93;;;;;;;;;;6145118;23;20473;-86
2024/04/15 12:40:14;;;;;;;3.60;0.90;;;;;;;;;;6155023;23;20403;-87
2024/04/15 12:42:46;;;;;;;2.17;0.90;;;;;;;;;;6131311;23;20454;-85
2024/04/15 12:45:45;;;;;;;1.40;1.17;;;;;;;;;;6147313;23;20407;-86
2024/04/15 12:48:28;;;;;;;1.70;1.13;;;;;;;;;;6127071;23;20462;-84
2024/04/15 12:51:06;;;;;;;1.53;0.90;;;;;;;;;;6130308;23;20410;-85
2024/04/15 12:53:33;;;;;;;1.20;0.83;;;;;;;;;;6120554;23;20928;-85
2024/04/15 12:56:39;;;;;;;;;;;;;;;;;;;;;
2024/04/15 12:59:16;;;;;;;1.83;0.83;;;;;;;;;;6082562;23;20410;-85
2024/04/15 13:02:09;;;;;;;2.10;1.20;;;;;;;;;;6150881;23;20399;-85
2024/04/15 13:04:58;;;;;;;;;;;;;;;;;;;;;
2024/04/15 13:07:37;;;;;;;3.43;0.80;;;;;;;;;;6148159;23;20407;-86
2024/04/15 13:10:33;;;;;;;1.40;1.00;;;;;;;;;;6137405;23;20414;-85
2024/04/15 13:13:47;;;;;;;0.73;0.70;;;;;;;;;;6157287;23;20450;-85
2024/04/15 13:16:33;;;;;;;1.77;0.90;;;;;;;;;;6137165;23;20403;-85
2024/04/15 13:22:42;;;;;;;1.93;0.87;;;;;;;;;;6116994;23;20461;-85
2024/04/15 13:25:20;;;;;;;0.90;0.67;;;;;;;;;;6136409;23;20465;-84
2024/04/15 13:27:58;;;;;;;1.10;1.00;;;;;;;;;;6159282;23;20425;-84
2024/04/15 13:30:33;;;;;;;1.13;1.03;;;;;;;;;;6114589;23;20402;-83
2024/04/15 13:33:08;;;;;;;1.10;0.60;;;;;;;;;;6133654;23;20453;-83
2024/04/15 13:35:47;;;;;;;1.77;0.83;;;;;;;;;;6133620;23;21460;-84
2024/04/15 13:38:52;;;;;;;1.97;0.77;;;;;;;;;;6129032;23;20398;-84
2024/04/15 13:41:29;;;;;;;1.40;0.77;;;;;;;;;;6112501;23;20399;-84
2024/04/15 13:44:26;;;;;;;4.50;0.87;;;;;;;;;;6133694;23;20423;-86
2024/04/15 13:47:06;;;;;;;1.50;1.00;;;;;;;;;;6120078;23;20502;-87
2024/04/15 13:49:55;;;;;;;3.23;0.80;;;;;;;;;;6129737;23;20417;-85
2024/04/15 13:52:24;;;;;;;1.30;0.73;;;;;;;;;;6130832;23;20457;-85
2024/04/15 13:55:15;;;;;;;33.63;26.87;;;;;;;;;;6131316;23;20433;-85
2024/04/15 13:57:52;;;;;;;1.00;0.70;;;;;;;;;;6155949;23;20406;-85
2024/04/15 14:00:33;;;;;;;1.80;0.90;;;;;;;;;;6134734;23;20398;-85
2024/04/15 14:06:12;;;;;;;;;;;;;;;;;;;;;
2024/04/15 14:08:54;;;;;;;2.50;0.87;;;;;;;;;;6128718;23;20402;-88
2024/04/15 14:11:25;;;;;;;1.60;0.67;;;;;;;;;;6110659;23;20409;-85
2024/04/15 14:14:17;;;;;;;1.67;1.20;;;;;;;;;;6137211;23;20457;-86
2024/04/15 14:16:57;;;;;;;0.93;0.80;;;;;;;;;;6108244;23;20414;-87
2024/04/15 14:19:31;;;;;;;2.20;0.73;;;;;;;;;;6106961;23;20413;-88
2024/04/15 14:22:13;;;;;;;;;;;;;;;;;;;;;
2024/04/15 14:25:06;;;;;;;1.20;1.07;;;;;;;;;;6127359;23;20493;-86
2024/04/15 14:28:00;;;;;;;1.60;0.80;;;;;;;;;;6105125;23;20407;-87
2024/04/15 14:30:41;;;;;;;0.63;0.50;;;;;;;;;;6103559;23;20418;-87
2024/04/15 14:33:33;;;;;;;0.57;0.57;;;;;;;;;;6104094;23;20446;-87
2024/04/15 14:36:21;;;;;;;2.20;0.70;;;;;;;;;;6106480;23;20407;-88
2024/04/15 14:38:55;;;;;;;0.50;0.50;;;;;;;;;;6125447;23;20403;-86
2024/04/15 14:41:25;;;;;;;1.00;0.67;;;;;;;;;;6132232;23;20395;-84
2024/04/15 14:44:03;;;;;;;0.90;0.60;;;;;;;;;;6114266;23;20431;-86
2024/04/15 14:46:43;;;;;;;;;;;;;;;;;;;;;
2024/04/15 14:49:30;;;;;;;3.30;1.00;;;;;;;;;;6135830;23;20429;-87
2024/04/15 14:52:03;;;;;;;2.77;0.97;;;;;;;;;;6128196;23;20484;-85
2024/04/15 14:54:33;;;;;;;0.90;0.60;;;;;;;;;;6107133;23;20425;-86
2024/04/15 14:57:33;;;;;;;1.60;0.67;;;;;;;;;;6136213;23;20433;-86
2024/04/15 15:00:16;;;;;;;0.90;0.80;;;;;;;;;;6129048;23;20413;-85
2024/04/15 15:02:52;;;;;;;0.93;0.70;;;;;;;;;;6107980;23;20559;-86
2024/04/15 15:05:30;;;;;;;2.40;0.70;;;;;;;;;;6133363;23;20415;-85
2024/04/15 15:08:23;;;;;;;2.43;0.73;;;;;;;;;;6109608;23;20403;-87
2024/04/15 15:11:02;;;;;;;0.50;0.50;;;;;;;;;;6110149;23;20410;-84
2024/04/15 15:13:36;;;;;;;1.47;0.60;;;;;;;;;;6144588;23;20439;-85
2024/04/15 15:16:18;;;;;;;0.80;0.50;;;;;;;;;;6145154;23;20470;-87
2024/04/15 15:18:48;;;;;;;1.00;0.50;;;;;;;;;;6118068;23;20861;-85
2024/04/15 15:21:35;;;;;;;2.00;0.60;;;;;;;;;;6114182;23;20410;-86
2024/04/15 15:24:11;;;;;;;0.70;0.60;;;;;;;;;;6106185;23;20610;-87
2024/04/15 15:26:41;;;;;;;2.93;0.60;;;;;;;;;;6111778;23;20477;-86
2024/04/15 15:29:26;;;;;;;0.73;0.40;;;;;;;;;;6116096;23;20403;-86
2024/04/15 15:34:51;;;;;;;;;;;;;;;;;;;;;
2024/04/15 15:37:45;;;;;;;1.93;0.50;;;;;;;;;;6202422;23;20406;-86
2024/04/15 15:40:40;;;;;;;0.50;0.47;;;;;;;;;;6192785;23;20385;-86
2024/04/15 15:43:09;;;;;;;0.60;0.60;;;;;;;;;;6167600;23;20485;-88
2024/04/15 15:45:35;;;;;;;0.63;0.60;;;;;;;;;;6140613;23;20410;-88
2024/04/15 15:48:05;;;;;;;1.80;0.50;;;;;;;;;;6143250;23;20402;-88
2024/04/15 15:50:43;;;;;;;1.40;0.50;;;;;;;;;;6142915;23;20398;-88
2024/04/15 15:53:53;;;;;;;1.37;1.27;;;;;;;;;;6170327;23;20422;-86
2024/04/15 15:56:19;;;;;;;0.60;0.60;;;;;;;;;;6144376;23;20406;-91
2024/04/15 15:58:51;;;;;;;0.70;0.57;;;;;;;;;;6145404;23;20591;-88
2024/04/15 16:01:20;;;;;;;1.77;0.97;;;;;;;;;;6145781;23;20382;-88
2024/04/15 16:03:54;;;;;;;3.10;0.80;;;;;;;;;;6141809;23;20472;-87
2024/04/15 16:06:35;;;;;;;0.60;0.60;;;;;;;;;;6165142;23;20398;-87
2024/04/15 16:09:07;;;;;;;0.60;0.47;;;;;;;;;;6140974;23;20409;-86
2024/04/15 16:11:44;;;;;;;1.53;1.03;;;;;;;;;;6134605;23;20410;-88
2024/04/15 16:14:20;;;;;;;0.63;0.63;;;;;;;;;;6151504;23;20413;-88
2024/04/15 16:16:51;;;;;;;0.73;0.50;;;;;;;;;;6142855;23;20871;-88
2024/04/15 16:31:19;;;;;;;1.47;0.90;;;;;;;;;;6183070;23;20458;-89